sensor_id;sensor_type;location;lat;lon;timestamp;temperature;humidity
758;DHT22;363;48.764;9.172;2022-10-31T00:02:07;13.70;99.90
758;DHT22;363;48.764;9.172;2022-10-31T00:04:33;13.00;99.90
758;DHT22;363;48.764;9.172;2022-10-31T00:06:58;12.60;99.90
758;DHT22;363;48.764;9.172;2022-10-31T00:09:24;13.40;99.90
758;DHT22;363;48.764;9.172;2022-10-31T00:11:49;13.10;99.90
758;DHT22;363;48.764;9.172;2022-10-31T00:14:15;13.20;99.90
758;DHT22;363;48.764;9.172;2022-10-31T00:16:40;13.50;99.90
758;DHT22;363;48.764;9.172;2022-10-31T00:19:07;13.20;99.90
758;DHT22;363;48.764;9.172;2022-10-31T00:21:34;12.70;99.90
758;DHT22;363;48.764;9.172;2022-10-31T00:24:00;12.90;99.90
758;DHT22;363;48.764;9.172;2022-10-31T00:26:30;12.80;99.90
758;DHT22;363;48.764;9.172;2022-10-31T00:28:57;13.20;99.90
758;DHT22;363;48.764;9.172;2022-10-31T00:31:22;13.10;99.90
758;DHT22;363;48.764;9.172;2022-10-31T00:33:48;12.10;99.90
758;DHT22;363;48.764;9.172;2022-10-31T00:36:16;12.70;99.90
758;DHT22;363;48.764;9.172;2022-10-31T00:38:42;12.50;99.90
758;DHT22;363;48.764;9.172;2022-10-31T00:41:09;12.60;99.90
758;DHT22;363;48.764;9.172;2022-10-31T00:43:35;13.00;99.90
758;DHT22;363;48.764;9.172;2022-10-31T00:46:00;12.60;99.90
758;DHT22;363;48.764;9.172;2022-10-31T00:48:26;12.60;99.90
758;DHT22;363;48.764;9.172;2022-10-31T00:50:51;12.60;99.90
758;DHT22;363;48.764;9.172;2022-10-31T00:53:17;12.50;99.90
758;DHT22;363;48.764;9.172;2022-10-31T00:55:42;12.90;99.90
758;DHT22;363;48.764;9.172;2022-10-31T00:58:08;12.70;99.90
758;DHT22;363;48.764;9.172;2022-10-31T01:00:33;12.70;99.90
758;DHT22;363;48.764;9.172;2022-10-31T01:02:59;12.30;99.90
758;DHT22;363;48.764;9.172;2022-10-31T01:05:25;12.60;99.90
758;DHT22;363;48.764;9.172;2022-10-31T01:07:50;12.60;99.90
758;DHT22;363;48.764;9.172;2022-10-31T01:10:16;12.80;99.90
758;DHT22;363;48.764;9.172;2022-10-31T01:12:45;12.40;99.90
758;DHT22;363;48.764;9.172;2022-10-31T01:15:13;12.70;99.90
758;DHT22;363;48.764;9.172;2022-10-31T01:17:40;12.30;99.90
758;DHT22;363;48.764;9.172;2022-10-31T01:20:07;12.70;99.90
758;DHT22;363;48.764;9.172;2022-10-31T01:22:33;12.40;99.90
758;DHT22;363;48.764;9.172;2022-10-31T01:24:59;12.50;99.90
758;DHT22;363;48.764;9.172;2022-10-31T01:27:25;12.20;99.90
758;DHT22;363;48.764;9.172;2022-10-31T01:29:51;12.10;99.90
758;DHT22;363;48.764;9.172;2022-10-31T01:32:16;12.10;99.90
758;DHT22;363;48.764;9.172;2022-10-31T01:34:42;12.20;99.90
758;DHT22;363;48.764;9.172;2022-10-31T01:37:07;12.30;99.90
758;DHT22;363;48.764;9.172;2022-10-31T01:39:33;12.10;99.90
758;DHT22;363;48.764;9.172;2022-10-31T01:41:58;12.00;99.90
758;DHT22;363;48.764;9.172;2022-10-31T01:47:12;12.10;99.90
758;DHT22;363;48.764;9.172;2022-10-31T01:49:48;11.90;99.90
758;DHT22;363;48.764;9.172;2022-10-31T01:54:48;12.40;99.90
758;DHT22;363;48.764;9.172;2022-10-31T01:57:14;11.90;99.90
758;DHT22;363;48.764;9.172;2022-10-31T01:59:45;12.00;99.90
758;DHT22;363;48.764;9.172;2022-10-31T02:02:12;12.30;99.90
758;DHT22;363;48.764;9.172;2022-10-31T02:04:39;12.60;99.90
758;DHT22;363;48.764;9.172;2022-10-31T02:07:10;12.20;99.90
758;DHT22;363;48.764;9.172;2022-10-31T02:09:36;12.50;99.90
758;DHT22;363;48.764;9.172;2022-10-31T02:12:03;12.20;99.90
758;DHT22;363;48.764;9.172;2022-10-31T02:14:30;12.40;99.90
758;DHT22;363;48.764;9.172;2022-10-31T02:16:56;12.60;99.90
758;DHT22;363;48.764;9.172;2022-10-31T02:22:33;12.70;99.90
758;DHT22;363;48.764;9.172;2022-10-31T02:27:46;12.60;99.90
758;DHT22;363;48.764;9.172;2022-10-31T02:30:17;12.40;99.90
758;DHT22;363;48.764;9.172;2022-10-31T02:36:12;12.00;99.90
758;DHT22;363;48.764;9.172;2022-10-31T02:38:54;11.60;99.90
758;DHT22;363;48.764;9.172;2022-10-31T02:44:10;12.60;99.90
758;DHT22;363;48.764;9.172;2022-10-31T02:49:33;12.20;99.90
758;DHT22;363;48.764;9.172;2022-10-31T02:52:01;12.00;99.90
758;DHT22;363;48.764;9.172;2022-10-31T02:54:27;11.90;99.90
758;DHT22;363;48.764;9.172;2022-10-31T02:57:00;12.30;99.90
758;DHT22;363;48.764;9.172;2022-10-31T02:59:29;12.30;99.90
758;DHT22;363;48.764;9.172;2022-10-31T03:02:28;12.10;99.90
758;DHT22;363;48.764;9.172;2022-10-31T03:11:00;11.80;99.90
758;DHT22;363;48.764;9.172;2022-10-31T03:15:47;12.80;99.90
758;DHT22;363;48.764;9.172;2022-10-31T03:18:19;12.20;99.90
758;DHT22;363;48.764;9.172;2022-10-31T03:21:12;12.00;99.90
758;DHT22;363;48.764;9.172;2022-10-31T03:23:39;12.00;99.90
758;DHT22;363;48.764;9.172;2022-10-31T03:26:07;12.10;99.90
758;DHT22;363;48.764;9.172;2022-10-31T03:28:41;11.80;99.90
758;DHT22;363;48.764;9.172;2022-10-31T03:31:09;11.70;99.90
758;DHT22;363;48.764;9.172;2022-10-31T03:33:37;12.20;99.90
758;DHT22;363;48.764;9.172;2022-10-31T03:36:05;12.30;99.90
758;DHT22;363;48.764;9.172;2022-10-31T03:38:32;11.90;99.90
758;DHT22;363;48.764;9.172;2022-10-31T03:41:00;12.20;99.90
758;DHT22;363;48.764;9.172;2022-10-31T03:43:32;12.10;99.90
758;DHT22;363;48.764;9.172;2022-10-31T03:45:58;12.10;99.90
758;DHT22;363;48.764;9.172;2022-10-31T03:48:24;11.90;99.90
758;DHT22;363;48.764;9.172;2022-10-31T03:51:04;11.70;99.90
758;DHT22;363;48.764;9.172;2022-10-31T03:53:38;11.70;99.90
758;DHT22;363;48.764;9.172;2022-10-31T03:56:11;11.90;99.90
758;DHT22;363;48.764;9.172;2022-10-31T03:58:44;11.80;99.90
758;DHT22;363;48.764;9.172;2022-10-31T04:01:15;11.70;99.90
758;DHT22;363;48.764;9.172;2022-10-31T04:03:43;12.00;99.90
758;DHT22;363;48.764;9.172;2022-10-31T04:06:12;11.70;99.90
758;DHT22;363;48.764;9.172;2022-10-31T04:08:53;11.80;99.90
758;DHT22;363;48.764;9.172;2022-10-31T04:11:23;11.70;99.90
758;DHT22;363;48.764;9.172;2022-10-31T04:13:51;11.70;99.90
758;DHT22;363;48.764;9.172;2022-10-31T04:16:18;12.30;99.90
758;DHT22;363;48.764;9.172;2022-10-31T04:18:44;11.80;99.90
758;DHT22;363;48.764;9.172;2022-10-31T04:21:10;11.80;99.90
758;DHT22;363;48.764;9.172;2022-10-31T04:23:36;12.00;99.90
758;DHT22;363;48.764;9.172;2022-10-31T04:26:01;11.90;99.90
758;DHT22;363;48.764;9.172;2022-10-31T04:28:27;11.70;99.90
758;DHT22;363;48.764;9.172;2022-10-31T04:30:53;11.70;99.90
758;DHT22;363;48.764;9.172;2022-10-31T04:33:18;11.60;99.90
758;DHT22;363;48.764;9.172;2022-10-31T04:35:44;11.90;99.90
758;DHT22;363;48.764;9.172;2022-10-31T04:38:10;11.70;99.90
758;DHT22;363;48.764;9.172;2022-10-31T04:40:35;11.70;99.90
758;DHT22;363;48.764;9.172;2022-10-31T04:43:01;12.00;99.90
758;DHT22;363;48.764;9.172;2022-10-31T04:45:26;12.10;99.90
758;DHT22;363;48.764;9.172;2022-10-31T04:47:52;11.80;99.90
758;DHT22;363;48.764;9.172;2022-10-31T04:50:18;11.70;99.90
758;DHT22;363;48.764;9.172;2022-10-31T04:52:45;12.30;99.90
758;DHT22;363;48.764;9.172;2022-10-31T04:55:12;11.70;99.90
758;DHT22;363;48.764;9.172;2022-10-31T04:57:42;11.80;99.90
758;DHT22;363;48.764;9.172;2022-10-31T05:00:09;11.90;99.90
758;DHT22;363;48.764;9.172;2022-10-31T05:02:52;11.90;99.90
758;DHT22;363;48.764;9.172;2022-10-31T05:05:20;11.80;99.90
758;DHT22;363;48.764;9.172;2022-10-31T05:07:46;11.90;99.90
758;DHT22;363;48.764;9.172;2022-10-31T05:10:15;11.90;99.90
758;DHT22;363;48.764;9.172;2022-10-31T05:12:56;11.50;99.90
758;DHT22;363;48.764;9.172;2022-10-31T05:15:23;11.30;99.90
758;DHT22;363;48.764;9.172;2022-10-31T05:17:49;11.70;99.90
758;DHT22;363;48.764;9.172;2022-10-31T05:20:17;11.60;99.90
758;DHT22;363;48.764;9.172;2022-10-31T05:22:44;11.50;99.90
758;DHT22;363;48.764;9.172;2022-10-31T05:25:10;11.90;99.90
758;DHT22;363;48.764;9.172;2022-10-31T05:27:39;11.50;99.90
758;DHT22;363;48.764;9.172;2022-10-31T05:30:06;11.80;99.90
758;DHT22;363;48.764;9.172;2022-10-31T05:32:40;11.50;99.90
758;DHT22;363;48.764;9.172;2022-10-31T05:35:07;11.30;99.90
758;DHT22;363;48.764;9.172;2022-10-31T05:37:34;11.10;99.90
758;DHT22;363;48.764;9.172;2022-10-31T05:40:01;11.10;99.90
758;DHT22;363;48.764;9.172;2022-10-31T05:42:26;11.10;99.90
758;DHT22;363;48.764;9.172;2022-10-31T05:44:52;11.20;99.90
758;DHT22;363;48.764;9.172;2022-10-31T05:47:17;11.60;99.90
758;DHT22;363;48.764;9.172;2022-10-31T05:49:43;11.60;99.90
758;DHT22;363;48.764;9.172;2022-10-31T05:52:09;11.30;99.90
758;DHT22;363;48.764;9.172;2022-10-31T05:54:34;12.50;99.90
758;DHT22;363;48.764;9.172;2022-10-31T05:57:00;11.30;99.90
758;DHT22;363;48.764;9.172;2022-10-31T05:59:25;11.40;99.90
758;DHT22;363;48.764;9.172;2022-10-31T06:01:51;11.50;99.90
758;DHT22;363;48.764;9.172;2022-10-31T06:04:16;11.40;99.90
758;DHT22;363;48.764;9.172;2022-10-31T06:06:41;11.40;99.90
758;DHT22;363;48.764;9.172;2022-10-31T06:09:07;11.40;99.90
758;DHT22;363;48.764;9.172;2022-10-31T06:11:33;11.20;99.90
758;DHT22;363;48.764;9.172;2022-10-31T06:13:58;11.40;99.90
758;DHT22;363;48.764;9.172;2022-10-31T06:16:24;11.30;99.90
758;DHT22;363;48.764;9.172;2022-10-31T06:18:49;11.60;99.90
758;DHT22;363;48.764;9.172;2022-10-31T06:21:15;11.50;99.90
758;DHT22;363;48.764;9.172;2022-10-31T06:23:40;11.60;99.90
758;DHT22;363;48.764;9.172;2022-10-31T06:26:06;11.40;99.90
758;DHT22;363;48.764;9.172;2022-10-31T06:28:31;11.90;99.90
758;DHT22;363;48.764;9.172;2022-10-31T06:30:57;12.20;99.90
758;DHT22;363;48.764;9.172;2022-10-31T06:33:22;12.00;99.90
758;DHT22;363;48.764;9.172;2022-10-31T06:35:48;11.40;99.90
758;DHT22;363;48.764;9.172;2022-10-31T06:38:14;11.50;99.90
758;DHT22;363;48.764;9.172;2022-10-31T06:40:40;11.90;99.90
758;DHT22;363;48.764;9.172;2022-10-31T06:43:06;11.60;99.90
758;DHT22;363;48.764;9.172;2022-10-31T06:45:32;11.70;99.90
758;DHT22;363;48.764;9.172;2022-10-31T06:47:57;11.80;99.90
758;DHT22;363;48.764;9.172;2022-10-31T06:50:23;11.50;99.90
758;DHT22;363;48.764;9.172;2022-10-31T06:52:53;11.30;99.90
758;DHT22;363;48.764;9.172;2022-10-31T06:55:19;11.40;99.90
758;DHT22;363;48.764;9.172;2022-10-31T06:58:09;11.60;99.90
758;DHT22;363;48.764;9.172;2022-10-31T07:00:35;11.60;99.90
758;DHT22;363;48.764;9.172;2022-10-31T07:03:06;11.90;99.90
758;DHT22;363;48.764;9.172;2022-10-31T07:05:32;12.00;99.90
758;DHT22;363;48.764;9.172;2022-10-31T07:08:02;11.80;99.90
758;DHT22;363;48.764;9.172;2022-10-31T07:10:30;11.80;99.90
758;DHT22;363;48.764;9.172;2022-10-31T07:13:01;12.10;99.90
758;DHT22;363;48.764;9.172;2022-10-31T07:15:28;12.00;99.90
758;DHT22;363;48.764;9.172;2022-10-31T07:17:58;11.60;99.90
758;DHT22;363;48.764;9.172;2022-10-31T07:20:24;12.40;99.90
758;DHT22;363;48.764;9.172;2022-10-31T07:22:50;12.30;99.90
758;DHT22;363;48.764;9.172;2022-10-31T07:25:15;12.40;99.90
758;DHT22;363;48.764;9.172;2022-10-31T07:27:42;12.30;99.90
758;DHT22;363;48.764;9.172;2022-10-31T07:30:10;12.30;99.90
758;DHT22;363;48.764;9.172;2022-10-31T07:35:06;12.60;99.90
758;DHT22;363;48.764;9.172;2022-10-31T07:37:32;12.60;99.90
758;DHT22;363;48.764;9.172;2022-10-31T07:39:58;12.70;99.90
758;DHT22;363;48.764;9.172;2022-10-31T07:42:23;12.90;99.90
758;DHT22;363;48.764;9.172;2022-10-31T07:44:49;13.50;99.90
758;DHT22;363;48.764;9.172;2022-10-31T07:47:14;12.90;99.90
758;DHT22;363;48.764;9.172;2022-10-31T07:49:40;13.20;99.90
758;DHT22;363;48.764;9.172;2022-10-31T07:52:05;12.80;99.90
758;DHT22;363;48.764;9.172;2022-10-31T07:54:31;13.00;99.90
758;DHT22;363;48.764;9.172;2022-10-31T07:56:56;13.00;99.90
758;DHT22;363;48.764;9.172;2022-10-31T07:59:21;13.10;99.90
758;DHT22;363;48.764;9.172;2022-10-31T08:01:47;13.40;99.90
758;DHT22;363;48.764;9.172;2022-10-31T08:04:12;12.90;99.90
758;DHT22;363;48.764;9.172;2022-10-31T08:06:38;13.60;99.90
758;DHT22;363;48.764;9.172;2022-10-31T08:09:04;13.60;99.90
758;DHT22;363;48.764;9.172;2022-10-31T08:11:29;13.40;99.90
758;DHT22;363;48.764;9.172;2022-10-31T08:13:55;13.40;99.90
758;DHT22;363;48.764;9.172;2022-10-31T08:16:20;13.80;99.90
758;DHT22;363;48.764;9.172;2022-10-31T08:18:46;13.80;99.90
758;DHT22;363;48.764;9.172;2022-10-31T08:21:12;13.80;99.90
758;DHT22;363;48.764;9.172;2022-10-31T08:23:38;14.30;99.90
758;DHT22;363;48.764;9.172;2022-10-31T08:26:03;14.00;99.90
758;DHT22;363;48.764;9.172;2022-10-31T08:28:31;14.00;99.90
758;DHT22;363;48.764;9.172;2022-10-31T08:30:57;14.70;99.90
758;DHT22;363;48.764;9.172;2022-10-31T08:33:23;14.60;99.90
758;DHT22;363;48.764;9.172;2022-10-31T08:35:49;15.10;99.90
758;DHT22;363;48.764;9.172;2022-10-31T08:38:15;15.20;99.90
758;DHT22;363;48.764;9.172;2022-10-31T08:40:41;15.40;99.90
758;DHT22;363;48.764;9.172;2022-10-31T08:43:14;15.30;99.90
758;DHT22;363;48.764;9.172;2022-10-31T08:45:40;15.20;99.90
758;DHT22;363;48.764;9.172;2022-10-31T08:48:11;16.50;99.90
758;DHT22;363;48.764;9.172;2022-10-31T08:50:37;15.20;99.90
758;DHT22;363;48.764;9.172;2022-10-31T08:53:05;15.50;99.90
758;DHT22;363;48.764;9.172;2022-10-31T08:55:32;15.80;99.90
758;DHT22;363;48.764;9.172;2022-10-31T08:57:57;15.90;99.90
758;DHT22;363;48.764;9.172;2022-10-31T09:00:23;16.20;99.90
758;DHT22;363;48.764;9.172;2022-10-31T09:02:55;16.20;99.90
758;DHT22;363;48.764;9.172;2022-10-31T09:05:21;16.40;99.90
758;DHT22;363;48.764;9.172;2022-10-31T09:07:47;16.20;99.90
758;DHT22;363;48.764;9.172;2022-10-31T09:10:12;16.10;99.90
758;DHT22;363;48.764;9.172;2022-10-31T09:12:38;16.40;99.90
758;DHT22;363;48.764;9.172;2022-10-31T09:15:03;16.60;99.90
758;DHT22;363;48.764;9.172;2022-10-31T09:17:31;16.00;99.90
758;DHT22;363;48.764;9.172;2022-10-31T09:19:57;16.50;99.90
758;DHT22;363;48.764;9.172;2022-10-31T09:22:23;16.70;99.90
758;DHT22;363;48.764;9.172;2022-10-31T09:24:48;16.50;99.90
758;DHT22;363;48.764;9.172;2022-10-31T09:27:14;16.50;99.90
758;DHT22;363;48.764;9.172;2022-10-31T09:29:39;16.80;99.90
758;DHT22;363;48.764;9.172;2022-10-31T09:32:05;17.10;99.90
758;DHT22;363;48.764;9.172;2022-10-31T09:34:30;16.50;99.90
758;DHT22;363;48.764;9.172;2022-10-31T09:36:56;17.10;99.90
758;DHT22;363;48.764;9.172;2022-10-31T09:39:21;16.60;99.90
758;DHT22;363;48.764;9.172;2022-10-31T09:44:25;16.90;99.90
758;DHT22;363;48.764;9.172;2022-10-31T09:47:00;16.90;99.90
758;DHT22;363;48.764;9.172;2022-10-31T09:50:05;17.40;99.90
758;DHT22;363;48.764;9.172;2022-10-31T09:52:35;17.10;99.90
758;DHT22;363;48.764;9.172;2022-10-31T09:55:14;17.20;99.90
758;DHT22;363;48.764;9.172;2022-10-31T09:57:41;17.20;99.90
758;DHT22;363;48.764;9.172;2022-10-31T10:00:15;17.40;99.90
758;DHT22;363;48.764;9.172;2022-10-31T10:05:53;17.60;99.90
758;DHT22;363;48.764;9.172;2022-10-31T10:08:26;17.40;99.90
758;DHT22;363;48.764;9.172;2022-10-31T10:13:58;17.50;99.90
758;DHT22;363;48.764;9.172;2022-10-31T10:27:52;17.90;99.90
758;DHT22;363;48.764;9.172;2022-10-31T10:30:21;18.10;99.90
758;DHT22;363;48.764;9.172;2022-10-31T10:32:54;18.20;99.90
758;DHT22;363;48.764;9.172;2022-10-31T10:35:33;18.60;99.90
758;DHT22;363;48.764;9.172;2022-10-31T10:38:10;18.70;99.90
758;DHT22;363;48.764;9.172;2022-10-31T10:40:37;18.40;99.90
758;DHT22;363;48.764;9.172;2022-10-31T10:43:23;18.20;99.90
758;DHT22;363;48.764;9.172;2022-10-31T10:49:19;18.20;99.90
758;DHT22;363;48.764;9.172;2022-10-31T10:51:59;18.90;99.90
758;DHT22;363;48.764;9.172;2022-10-31T10:59:53;18.40;99.90
758;DHT22;363;48.764;9.172;2022-10-31T11:02:31;19.00;99.90
758;DHT22;363;48.764;9.172;2022-10-31T11:04:58;19.00;99.90
758;DHT22;363;48.764;9.172;2022-10-31T11:07:25;18.20;99.90
758;DHT22;363;48.764;9.172;2022-10-31T11:10:06;19.00;99.90
758;DHT22;363;48.764;9.172;2022-10-31T11:12:39;18.50;99.90
758;DHT22;363;48.764;9.172;2022-10-31T11:15:20;18.90;99.90
758;DHT22;363;48.764;9.172;2022-10-31T11:17:49;19.10;99.90
758;DHT22;363;48.764;9.172;2022-10-31T11:22:46;18.80;99.90
758;DHT22;363;48.764;9.172;2022-10-31T11:25:22;18.70;99.90
758;DHT22;363;48.764;9.172;2022-10-31T11:28:07;19.00;99.90
758;DHT22;363;48.764;9.172;2022-10-31T11:30:46;18.70;99.90
758;DHT22;363;48.764;9.172;2022-10-31T11:35:47;19.00;99.90
758;DHT22;363;48.764;9.172;2022-10-31T11:38:21;19.10;99.90
758;DHT22;363;48.764;9.172;2022-10-31T11:41:14;19.20;99.90
758;DHT22;363;48.764;9.172;2022-10-31T11:43:38;19.30;99.90
758;DHT22;363;48.764;9.172;2022-10-31T11:46:15;19.60;99.90
758;DHT22;363;48.764;9.172;2022-10-31T11:48:48;19.70;99.90
758;DHT22;363;48.764;9.172;2022-10-31T11:51:21;19.30;99.90
758;DHT22;363;48.764;9.172;2022-10-31T11:53:52;19.70;99.90
758;DHT22;363;48.764;9.172;2022-10-31T11:56:18;19.50;99.90
758;DHT22;363;48.764;9.172;2022-10-31T11:58:43;19.40;99.90
758;DHT22;363;48.764;9.172;2022-10-31T12:01:25;19.60;99.90
758;DHT22;363;48.764;9.172;2022-10-31T12:04:02;18.60;99.90
758;DHT22;363;48.764;9.172;2022-10-31T12:06:41;19.50;99.90
758;DHT22;363;48.764;9.172;2022-10-31T12:09:29;19.40;99.90
758;DHT22;363;48.764;9.172;2022-10-31T12:12:29;19.50;99.90
758;DHT22;363;48.764;9.172;2022-10-31T12:26:01;19.60;99.90
758;DHT22;363;48.764;9.172;2022-10-31T12:28:44;19.60;99.90
758;DHT22;363;48.764;9.172;2022-10-31T12:37:13;20.10;99.90
758;DHT22;363;48.764;9.172;2022-10-31T12:42:48;20.00;99.90
758;DHT22;363;48.764;9.172;2022-10-31T12:45:57;20.00;99.90
758;DHT22;363;48.764;9.172;2022-10-31T12:51:33;19.90;99.90
758;DHT22;363;48.764;9.172;2022-10-31T12:59:53;19.90;99.90
758;DHT22;363;48.764;9.172;2022-10-31T13:02:41;20.30;99.90
758;DHT22;363;48.764;9.172;2022-10-31T13:05:33;19.80;99.90
758;DHT22;363;48.764;9.172;2022-10-31T13:08:19;19.70;99.90
758;DHT22;363;48.764;9.172;2022-10-31T13:11:05;19.70;99.90
758;DHT22;363;48.764;9.172;2022-10-31T13:13:41;19.70;99.90
758;DHT22;363;48.764;9.172;2022-10-31T13:16:16;19.70;99.90
758;DHT22;363;48.764;9.172;2022-10-31T13:18:49;20.10;99.90
758;DHT22;363;48.764;9.172;2022-10-31T13:21:41;20.10;99.90
758;DHT22;363;48.764;9.172;2022-10-31T13:24:10;19.70;99.90
758;DHT22;363;48.764;9.172;2022-10-31T13:29:33;19.60;99.90
758;DHT22;363;48.764;9.172;2022-10-31T13:32:04;19.50;99.90
758;DHT22;363;48.764;9.172;2022-10-31T13:34:44;19.60;99.90
758;DHT22;363;48.764;9.172;2022-10-31T13:37:44;19.70;99.90
758;DHT22;363;48.764;9.172;2022-10-31T13:43:02;20.20;99.90
758;DHT22;363;48.764;9.172;2022-10-31T13:45:31;20.20;99.90
758;DHT22;363;48.764;9.172;2022-10-31T13:50:41;20.10;99.90
758;DHT22;363;48.764;9.172;2022-10-31T13:53:22;20.50;99.90
758;DHT22;363;48.764;9.172;2022-10-31T13:56:05;20.30;99.90
758;DHT22;363;48.764;9.172;2022-10-31T13:58:36;20.20;99.90
758;DHT22;363;48.764;9.172;2022-10-31T14:01:21;20.60;99.90
758;DHT22;363;48.764;9.172;2022-10-31T14:03:57;20.10;99.90
758;DHT22;363;48.764;9.172;2022-10-31T14:06:38;20.30;99.90
758;DHT22;363;48.764;9.172;2022-10-31T14:09:05;20.00;99.90
758;DHT22;363;48.764;9.172;2022-10-31T14:11:39;20.20;99.90
758;DHT22;363;48.764;9.172;2022-10-31T14:14:11;20.40;99.90
758;DHT22;363;48.764;9.172;2022-10-31T14:16:43;20.40;99.90
758;DHT22;363;48.764;9.172;2022-10-31T14:19:20;19.70;99.90
758;DHT22;363;48.764;9.172;2022-10-31T14:21:50;19.60;99.90
758;DHT22;363;48.764;9.172;2022-10-31T14:26:57;19.50;99.90
758;DHT22;363;48.764;9.172;2022-10-31T14:29:41;19.40;99.90
758;DHT22;363;48.764;9.172;2022-10-31T14:42:49;19.00;99.90
758;DHT22;363;48.764;9.172;2022-10-31T14:51:03;19.10;99.90
758;DHT22;363;48.764;9.172;2022-10-31T14:53:38;19.10;99.90
758;DHT22;363;48.764;9.172;2022-10-31T14:56:10;19.50;99.90
758;DHT22;363;48.764;9.172;2022-10-31T14:58:47;19.30;99.90
758;DHT22;363;48.764;9.172;2022-10-31T15:01:25;19.20;99.90
758;DHT22;363;48.764;9.172;2022-10-31T15:03:58;18.90;99.90
758;DHT22;363;48.764;9.172;2022-10-31T15:06:26;18.70;99.90
758;DHT22;363;48.764;9.172;2022-10-31T15:08:55;19.00;99.90
758;DHT22;363;48.764;9.172;2022-10-31T15:11:26;18.70;99.90
758;DHT22;363;48.764;9.172;2022-10-31T15:13:54;18.60;99.90
758;DHT22;363;48.764;9.172;2022-10-31T15:16:21;19.00;99.90
758;DHT22;363;48.764;9.172;2022-10-31T15:18:56;18.50;99.90
758;DHT22;363;48.764;9.172;2022-10-31T15:21:24;18.40;99.90
758;DHT22;363;48.764;9.172;2022-10-31T15:23:52;19.10;99.90
758;DHT22;363;48.764;9.172;2022-10-31T15:26:20;18.50;99.90
758;DHT22;363;48.764;9.172;2022-10-31T15:28:59;18.20;99.90
758;DHT22;363;48.764;9.172;2022-10-31T15:31:25;18.20;99.90
758;DHT22;363;48.764;9.172;2022-10-31T15:33:52;18.50;99.90
758;DHT22;363;48.764;9.172;2022-10-31T15:36:22;18.20;99.90
758;DHT22;363;48.764;9.172;2022-10-31T15:38:49;17.80;99.90
758;DHT22;363;48.764;9.172;2022-10-31T15:41:26;18.00;99.90
758;DHT22;363;48.764;9.172;2022-10-31T15:43:53;17.70;99.90
758;DHT22;363;48.764;9.172;2022-10-31T15:46:19;17.90;99.90
758;DHT22;363;48.764;9.172;2022-10-31T15:48:47;17.30;99.90
758;DHT22;363;48.764;9.172;2022-10-31T15:51:13;17.70;99.90
758;DHT22;363;48.764;9.172;2022-10-31T15:53:48;17.80;99.90
758;DHT22;363;48.764;9.172;2022-10-31T15:56:26;17.30;99.90
758;DHT22;363;48.764;9.172;2022-10-31T15:58:54;17.30;99.90
758;DHT22;363;48.764;9.172;2022-10-31T16:01:26;17.80;99.90
758;DHT22;363;48.764;9.172;2022-10-31T16:06:35;17.00;99.90
758;DHT22;363;48.764;9.172;2022-10-31T16:09:02;16.70;99.90
758;DHT22;363;48.764;9.172;2022-10-31T16:11:35;17.10;99.90
758;DHT22;363;48.764;9.172;2022-10-31T16:14:13;16.90;99.90
758;DHT22;363;48.764;9.172;2022-10-31T16:16:49;17.10;99.90
758;DHT22;363;48.764;9.172;2022-10-31T16:19:18;16.90;99.90
758;DHT22;363;48.764;9.172;2022-10-31T16:21:46;17.10;99.90
758;DHT22;363;48.764;9.172;2022-10-31T16:24:22;16.80;99.90
758;DHT22;363;48.764;9.172;2022-10-31T16:26:52;16.80;99.90
758;DHT22;363;48.764;9.172;2022-10-31T16:29:27;16.90;99.90
758;DHT22;363;48.764;9.172;2022-10-31T16:31:53;16.60;99.90
758;DHT22;363;48.764;9.172;2022-10-31T16:34:22;16.30;99.90
758;DHT22;363;48.764;9.172;2022-10-31T16:36:48;16.50;99.90
758;DHT22;363;48.764;9.172;2022-10-31T16:39:14;16.60;99.90
758;DHT22;363;48.764;9.172;2022-10-31T16:41:41;16.30;99.90
758;DHT22;363;48.764;9.172;2022-10-31T16:44:21;16.30;99.90
758;DHT22;363;48.764;9.172;2022-10-31T16:46:46;16.20;99.90
758;DHT22;363;48.764;9.172;2022-10-31T16:49:12;16.00;99.90
758;DHT22;363;48.764;9.172;2022-10-31T16:51:38;16.30;99.90
758;DHT22;363;48.764;9.172;2022-10-31T16:54:04;16.30;99.90
758;DHT22;363;48.764;9.172;2022-10-31T16:56:32;15.70;99.90
758;DHT22;363;48.764;9.172;2022-10-31T16:59:01;16.60;99.90
758;DHT22;363;48.764;9.172;2022-10-31T17:01:28;16.00;99.90
758;DHT22;363;48.764;9.172;2022-10-31T17:03:53;15.90;99.90
758;DHT22;363;48.764;9.172;2022-10-31T17:06:19;15.50;99.90
758;DHT22;363;48.764;9.172;2022-10-31T17:08:45;15.20;99.90
758;DHT22;363;48.764;9.172;2022-10-31T17:11:22;15.40;99.90
758;DHT22;363;48.764;9.172;2022-10-31T17:13:49;16.10;99.90
758;DHT22;363;48.764;9.172;2022-10-31T17:16:15;15.80;99.90
758;DHT22;363;48.764;9.172;2022-10-31T17:18:41;15.20;99.90
758;DHT22;363;48.764;9.172;2022-10-31T17:21:18;15.10;99.90
758;DHT22;363;48.764;9.172;2022-10-31T17:23:45;15.30;99.90
758;DHT22;363;48.764;9.172;2022-10-31T17:26:11;15.60;99.90
758;DHT22;363;48.764;9.172;2022-10-31T17:28:36;15.60;99.90
758;DHT22;363;48.764;9.172;2022-10-31T17:31:02;15.20;99.90
758;DHT22;363;48.764;9.172;2022-10-31T17:33:27;15.10;99.90
758;DHT22;363;48.764;9.172;2022-10-31T17:35:53;14.70;99.90
758;DHT22;363;48.764;9.172;2022-10-31T17:38:18;15.30;99.90
758;DHT22;363;48.764;9.172;2022-10-31T17:40:44;14.70;99.90
758;DHT22;363;48.764;9.172;2022-10-31T17:43:10;15.30;99.90
758;DHT22;363;48.764;9.172;2022-10-31T17:45:38;15.50;99.90
758;DHT22;363;48.764;9.172;2022-10-31T17:48:04;14.90;99.90
758;DHT22;363;48.764;9.172;2022-10-31T17:50:29;14.70;99.90
758;DHT22;363;48.764;9.172;2022-10-31T17:52:57;14.80;99.90
758;DHT22;363;48.764;9.172;2022-10-31T17:55:22;14.70;99.90
758;DHT22;363;48.764;9.172;2022-10-31T17:57:48;14.60;99.90
758;DHT22;363;48.764;9.172;2022-10-31T18:00:16;14.80;99.90
758;DHT22;363;48.764;9.172;2022-10-31T18:02:42;14.70;99.90
758;DHT22;363;48.764;9.172;2022-10-31T18:05:08;14.90;99.90
758;DHT22;363;48.764;9.172;2022-10-31T18:07:34;14.90;99.90
758;DHT22;363;48.764;9.172;2022-10-31T18:09:59;14.70;99.90
758;DHT22;363;48.764;9.172;2022-10-31T18:12:26;14.70;99.90
758;DHT22;363;48.764;9.172;2022-10-31T18:14:52;14.50;99.90
758;DHT22;363;48.764;9.172;2022-10-31T18:17:18;14.30;99.90
758;DHT22;363;48.764;9.172;2022-10-31T18:19:44;14.50;99.90
758;DHT22;363;48.764;9.172;2022-10-31T18:22:10;14.20;99.90
758;DHT22;363;48.764;9.172;2022-10-31T18:24:35;14.30;99.90
758;DHT22;363;48.764;9.172;2022-10-31T18:27:01;14.30;99.90
758;DHT22;363;48.764;9.172;2022-10-31T18:29:27;14.40;99.90
758;DHT22;363;48.764;9.172;2022-10-31T18:31:53;14.40;99.90
758;DHT22;363;48.764;9.172;2022-10-31T18:34:19;14.50;99.90
758;DHT22;363;48.764;9.172;2022-10-31T18:36:45;14.20;99.90
758;DHT22;363;48.764;9.172;2022-10-31T18:39:11;14.20;99.90
758;DHT22;363;48.764;9.172;2022-10-31T18:41:37;14.30;99.90
758;DHT22;363;48.764;9.172;2022-10-31T18:44:04;14.30;99.90
758;DHT22;363;48.764;9.172;2022-10-31T18:46:30;14.60;99.90
758;DHT22;363;48.764;9.172;2022-10-31T18:48:56;14.80;99.90
758;DHT22;363;48.764;9.172;2022-10-31T18:51:22;14.60;99.90
758;DHT22;363;48.764;9.172;2022-10-31T18:53:53;14.30;99.90